Time;durP1;ratioP1;P1;durP2;ratioP2;P2;SDS_P1;SDS_P2;PMS_P1;PMS_P2;Temp;Humidity;BMP_temperature;BMP_pressure;BME280_temperature;BME280_humidity;BME280_pressure;Samples;Min_cycle;Max_cycle;Signal;HPM_P1;HPM_P2
2022/06/02 00:00:24;;;;;;;8.73;6.60;;;10.60;99.90;;;;;;4990131;28;20505;-80
2022/06/02 00:03:18;;;;;;;7.83;7.03;;;10.50;99.90;;;;;;4996064;28;20963;-81
2022/06/02 00:06:13;;;;;;;8.27;7.37;;;10.50;99.90;;;;;;4995664;28;20542;-81
2022/06/02 00:09:02;;;;;;;9.27;6.90;;;10.50;99.90;;;;;;4996048;28;20459;-81
2022/06/02 00:11:50;;;;;;;6.90;6.20;;;10.40;99.90;;;;;;4995274;28;20478;-81
2022/06/02 00:14:22;;;;;;;9.00;6.70;;;10.40;99.90;;;;;;4995730;28;20460;-80
2022/06/02 00:17:02;;;;;;;7.37;6.17;;;10.40;99.90;;;;;;4996423;28;20469;-81
2022/06/02 00:19:38;;;;;;;8.10;6.23;;;10.30;99.90;;;;;;4998254;28;20492;-80
2022/06/02 00:22:14;;;;;;;6.97;6.27;;;10.30;99.90;;;;;;5011437;28;20481;-78
2022/06/02 00:24:46;;;;;;;8.00;7.03;;;10.20;99.90;;;;;;5023568;28;20456;-81
2022/06/02 00:27:26;;;;;;;7.87;6.10;;;10.20;99.90;;;;;;5022796;28;20448;-80
2022/06/02 00:30:03;;;;;;;9.93;6.20;;;10.20;99.90;;;;;;5022311;28;20445;-80
2022/06/02 00:32:42;;;;;;;6.70;6.10;;;10.20;99.90;;;;;;5003141;28;20483;-81
2022/06/02 00:35:21;;;;;;;7.00;5.80;;;10.10;99.90;;;;;;5003395;28;20484;-80
2022/06/02 00:37:52;;;;;;;6.27;5.60;;;10.10;99.90;;;;;;4997326;28;20461;-79
2022/06/02 00:40:21;;;;;;;7.40;5.93;;;10.10;99.90;;;;;;4994783;28;20498;-79
2022/06/02 00:43:02;;;;;;;6.93;6.23;;;10.00;99.90;;;;;;4997663;28;20456;-80
2022/06/02 00:45:29;;;;;;;8.20;6.53;;;10.00;99.90;;;;;;4999962;28;20688;-80
2022/06/02 00:48:12;;;;;;;6.83;5.90;;;10.00;99.90;;;;;;4999545;28;20454;-80
2022/06/02 00:50:59;;;;;;;6.40;5.80;;;10.00;99.90;;;;;;4998991;28;20569;-80
2022/06/02 00:53:39;;;;;;;9.70;6.50;;;10.00;99.90;;;;;;4997752;28;20456;-80
2022/06/02 00:59:15;;;;;;;6.43;5.83;;;9.90;99.90;;;;;;4999575;28;20426;-80
2022/06/02 01:01:41;;;;;;;7.57;6.50;;;9.80;99.90;;;;;;4998461;28;20523;-81
2022/06/02 01:04:15;;;;;;;8.47;7.57;;;9.80;99.90;;;;;;4999410;28;20452;-80
2022/06/02 01:07:07;;;;;;;7.57;5.83;;;9.80;99.90;;;;;;4999214;28;20457;-80
2022/06/02 01:09:59;;;;;;;8.57;7.63;;;9.80;99.90;;;;;;4996095;28;20496;-81
2022/06/02 01:12:45;;;;;;;7.40;6.60;;;9.70;99.90;;;;;;4998083;28;20835;-80
2022/06/02 01:15:21;;;;;;;9.57;7.30;;;9.70;99.90;;;;;;4999048;28;20457;-80
2022/06/02 01:18:04;;;;;;;7.70;6.87;;;9.70;99.90;;;;;;5005749;28;20461;-79
2022/06/02 01:20:43;;;;;;;8.50;6.80;;;9.70;99.90;;;;;;5003735;28;20604;-79
2022/06/02 01:23:54;;;;;;;8.67;7.00;;;9.70;99.90;;;;;;4999510;28;20535;-79
2022/06/02 01:26:52;;;;;;;8.73;7.17;;;9.70;99.90;;;;;;4985697;28;20541;-80
2022/06/02 01:29:39;;;;;;;7.07;6.27;;;9.70;99.90;;;;;;4996940;28;20543;-80
2022/06/02 01:32:10;;;;;;;9.33;7.10;;;9.60;99.90;;;;;;4996953;28;20477;-80
2022/06/02 01:34:50;;;;;;;8.27;6.90;;;9.50;99.90;;;;;;4998844;28;20913;-81
2022/06/02 01:37:24;;;;;;;7.03;6.33;;;9.50;99.90;;;;;;4999026;28;20451;-80
2022/06/02 01:40:03;;;;;;;11.17;7.50;;;9.50;99.90;;;;;;4997748;28;20492;-81
2022/06/02 01:42:42;;;;;;;7.70;6.10;;;9.50;99.90;;;;;;4998026;28;20464;-80
2022/06/02 01:45:19;;;;;;;9.77;6.80;;;9.50;99.90;;;;;;4999267;28;20520;-80
2022/06/02 01:47:52;;;;;;;7.77;6.07;;;9.50;99.90;;;;;;4999214;28;20457;-80
2022/06/02 01:50:30;;;;;;;8.60;6.40;;;9.40;99.90;;;;;;4997766;28;20486;-80
2022/06/02 01:53:05;;;;;;;8.17;7.37;;;9.40;99.90;;;;;;4999613;28;20461;-80
2022/06/02 01:55:54;;;;;;;8.60;7.23;;;9.40;99.90;;;;;;4999535;28;21027;-81
2022/06/02 01:58:49;;;;;;;8.93;7.63;;;9.40;99.90;;;;;;5000612;28;20547;-80
2022/06/02 02:01:32;;;;;;;8.90;7.70;;;9.40;99.90;;;;;;4999889;28;20495;-79
2022/06/02 02:04:15;;;;;;;8.20;7.40;;;9.30;99.90;;;;;;5001613;28;20446;-79
2022/06/02 02:06:51;;;;;;;8.73;7.20;;;9.30;99.90;;;;;;5000525;28;20999;-80
2022/06/02 02:09:29;;;;;;;8.23;6.40;;;9.30;99.90;;;;;;5000712;28;20454;-80
2022/06/02 02:11:57;;;;;;;10.00;8.13;;;9.20;99.90;;;;;;4982275;28;20488;-79
2022/06/02 02:15:12;;;;;;;9.50;7.90;;;9.20;99.90;;;;;;4981504;28;20464;-80
2022/06/02 02:17:49;;;;;;;7.23;6.30;;;9.20;99.90;;;;;;4961515;28;20475;-79
2022/06/02 02:20:26;;;;;;;9.90;6.97;;;9.20;99.90;;;;;;4985026;28;20492;-80
2022/06/02 02:23:00;;;;;;;9.83;7.00;;;9.10;99.90;;;;;;4998039;28;20455;-80
2022/06/02 02:25:33;;;;;;;8.13;7.33;;;9.10;99.90;;;;;;4997825;28;20455;-79
2022/06/02 02:28:08;;;;;;;10.00;7.83;;;9.10;99.90;;;;;;4998155;28;20445;-80
2022/06/02 02:30:46;;;;;;;9.60;7.37;;;9.10;99.90;;;;;;4997423;28;20879;-81
2022/06/02 02:33:21;;;;;;;9.13;8.23;;;9.10;99.90;;;;;;4997588;28;20450;-79
2022/06/02 02:36:00;;;;;;;8.93;8.03;;;9.10;99.90;;;;;;4998434;28;20541;-79
2022/06/02 02:38:41;;;;;;;8.73;7.13;;;9.10;99.90;;;;;;4998455;28;20435;-79
2022/06/02 02:41:13;;;;;;;9.63;7.97;;;9.10;99.90;;;;;;4997567;28;20491;-78
2022/06/02 02:43:45;;;;;;;8.37;7.40;;;9.10;99.90;;;;;;4998358;28;20469;-78
2022/06/02 02:46:16;;;;;;;10.20;8.20;;;9.00;99.90;;;;;;4998827;28;20469;-79
2022/06/02 02:48:54;;;;;;;8.03;7.23;;;9.00;99.90;;;;;;4998514;28;20975;-80
2022/06/02 02:51:39;;;;;;;10.83;8.70;;;9.00;99.90;;;;;;4997048;28;20469;-79
2022/06/02 02:54:12;;;;;;;10.37;8.60;;;9.00;99.90;;;;;;4997289;28;20974;-78
2022/06/02 02:56:46;;;;;;;9.50;7.77;;;8.90;99.90;;;;;;4997863;28;20531;-79
2022/06/02 02:59:20;;;;;;;10.47;9.07;;;8.90;99.90;;;;;;4997830;28;20809;-78
2022/06/02 03:01:54;;;;;;;10.73;9.23;;;8.90;99.90;;;;;;4996611;28;20516;-79
2022/06/02 03:04:34;;;;;;;12.37;9.07;;;8.90;99.90;;;;;;4996970;28;20451;-79
2022/06/02 03:07:02;;;;;;;12.83;10.13;;;8.90;99.90;;;;;;4997488;28;20461;-79
2022/06/02 03:09:35;;;;;;;9.40;8.40;;;8.80;99.90;;;;;;4997413;28;20745;-79
2022/06/02 03:12:09;;;;;;;12.13;10.83;;;8.90;99.90;;;;;;4996769;28;20473;-79
2022/06/02 03:15:03;;;;;;;15.60;9.47;;;8.80;99.90;;;;;;4997403;28;20470;-78
2022/06/02 03:17:45;;;;;;;11.30;8.80;;;8.80;99.90;;;;;;4998101;28;20550;-80
2022/06/02 03:20:21;;;;;;;11.90;9.30;;;8.80;99.90;;;;;;4997080;28;20915;-79
2022/06/02 03:23:02;;;;;;;11.83;10.47;;;8.80;99.90;;;;;;4976571;28;20822;-80
2022/06/02 03:25:35;;;;;;;13.13;10.67;;;8.80;99.90;;;;;;4977729;28;20455;-80
2022/06/02 03:28:15;;;;;;;11.73;9.97;;;8.80;99.90;;;;;;4977499;28;20470;-80
2022/06/02 03:30:48;;;;;;;15.33;9.60;;;8.80;99.90;;;;;;4979318;28;20470;-80
2022/06/02 03:33:29;;;;;;;13.80;10.30;;;8.80;99.90;;;;;;4997023;28;20451;-80
2022/06/02 03:36:06;;;;;;;12.90;10.03;;;8.70;99.90;;;;;;4997228;28;20466;-80
2022/06/02 03:41:30;;;;;;;12.60;10.43;;;8.80;99.90;;;;;;4991848;28;20491;-78
2022/06/02 03:44:07;;;;;;;10.67;9.50;;;8.80;99.90;;;;;;4996467;28;20447;-78
2022/06/02 03:46:52;;;;;;;14.23;11.17;;;8.80;99.90;;;;;;4996573;28;20522;-78
2022/06/02 03:49:34;;;;;;;12.90;10.13;;;8.80;99.90;;;;;;4996232;28;20470;-77
2022/06/02 03:52:17;;;;;;;11.50;10.23;;;8.80;99.90;;;;;;4999269;28;20817;-81
2022/06/02 03:54:59;;;;;;;14.50;11.40;;;8.80;99.90;;;;;;5004303;28;20466;-81
2022/06/02 03:57:45;;;;;;;13.20;11.80;;;8.80;99.90;;;;;;5007231;28;20506;-81
2022/06/02 04:00:22;;;;;;;13.20;11.17;;;8.90;99.90;;;;;;5007140;28;20477;-82
2022/06/02 04:02:53;;;;;;;13.23;11.27;;;8.90;99.90;;;;;;5008338;28;20447;-81
2022/06/02 04:05:44;;;;;;;12.40;11.07;;;8.90;99.90;;;;;;5009583;28;20452;-82
2022/06/02 04:08:43;;;;;;;15.80;12.40;;;8.90;99.90;;;;;;5010644;28;21011;-82
2022/06/02 04:11:21;;;;;;;14.90;10.70;;;9.00;99.90;;;;;;5008391;28;20483;-83
2022/06/02 04:14:00;;;;;;;17.67;12.03;;;9.00;99.90;;;;;;5005961;28;20470;-82
2022/06/02 04:16:49;;;;;;;15.37;12.77;;;9.10;99.90;;;;;;5004376;28;20821;-84
2022/06/02 04:22:31;;;;;;;14.33;11.80;;;9.20;99.90;;;;;;4998104;28;21033;-81
2022/06/02 04:25:11;;;;;;;16.77;13.03;;;9.30;99.90;;;;;;4979931;28;20466;-82
2022/06/02 04:27:44;;;;;;;16.40;12.00;;;9.30;99.90;;;;;;4979276;28;20518;-84
2022/06/02 04:30:19;;;;;;;16.03;13.67;;;9.30;99.90;;;;;;4979493;28;20478;-82
2022/06/02 04:32:55;;;;;;;17.50;14.00;;;9.40;99.90;;;;;;5007662;28;20519;-82
2022/06/02 04:35:36;;;;;;;15.83;13.63;;;9.40;99.90;;;;;;5025050;28;20436;-82
2022/06/02 04:38:15;;;;;;;19.90;14.43;;;9.50;99.90;;;;;;5020663;28;20443;-82
2022/06/02 04:40:52;;;;;;;17.07;15.13;;;9.60;99.90;;;;;;5000011;28;20506;-82
2022/06/02 04:43:28;;;;;;;19.33;13.30;;;9.70;99.90;;;;;;4996667;28;20476;-79
2022/06/02 04:46:07;;;;;;;21.07;15.17;;;9.70;99.90;;;;;;4997969;28;20451;-83
2022/06/02 04:48:42;;;;;;;15.67;13.20;;;9.80;99.90;;;;;;4998586;28;20452;-82
2022/06/02 04:51:15;;;;;;;17.13;14.70;;;9.90;99.90;;;;;;4998749;28;20472;-83
2022/06/02 04:53:50;;;;;;;20.13;15.70;;;10.00;99.90;;;;;;4999064;28;20527;-79
2022/06/02 04:56:29;;;;;;;20.27;17.00;;;10.10;99.90;;;;;;4997569;28;20522;-83
2022/06/02 04:59:10;;;;;;;20.87;17.40;;;10.10;99.90;;;;;;4997969;28;20472;-80
2022/06/02 05:01:51;;;;;;;20.87;17.30;;;10.20;99.90;;;;;;4995009;28;20485;-81
2022/06/02 05:04:31;;;;;;;21.67;16.27;;;10.30;99.90;;;;;;4997222;28;20452;-82
2022/06/02 05:07:11;;;;;;;18.33;16.23;;;10.40;99.90;;;;;;5000197;28;20477;-83
2022/06/02 05:09:45;;;;;;;21.67;17.27;;;10.60;99.90;;;;;;5006036;28;20583;-82
2022/06/02 05:12:22;;;;;;;24.33;17.53;;;10.70;99.90;;;;;;5001953;28;20459;-82
2022/06/02 05:15:02;;;;;;;17.93;15.87;;;10.70;99.90;;;;;;4996870;28;20449;-83
2022/06/02 05:17:50;;;;;;;22.87;17.70;;;10.80;99.90;;;;;;5008330;28;20455;-82
2022/06/02 05:20:56;;;;;;;18.43;14.93;;;10.90;99.90;;;;;;5008254;28;20477;-82
2022/06/02 05:23:56;;;;;;;18.23;16.17;;;11.00;99.90;;;;;;4998381;28;20452;-82
2022/06/02 05:26:37;;;;;;;18.80;15.40;;;11.10;99.90;;;;;;4987058;28;20455;-82
2022/06/02 05:29:19;;;;;;;20.73;15.70;;;11.20;99.90;;;;;;5001679;28;20497;-81
2022/06/02 05:32:20;;;;;;;18.27;15.20;;;11.20;99.90;;;;;;5006602;28;20438;-83
2022/06/02 05:35:24;;;;;;;18.40;15.57;;;11.30;99.90;;;;;;5001472;28;20477;-81
2022/06/02 05:38:24;;;;;;;20.07;16.43;;;11.40;99.90;;;;;;5007493;28;20446;-80
2022/06/02 05:41:03;;;;;;;20.33;15.97;;;11.40;99.90;;;;;;5006811;28;20485;-83
2022/06/02 05:43:37;;;;;;;18.07;16.17;;;11.50;99.90;;;;;;5006238;28;20453;-82
2022/06/02 05:46:20;;;;;;;20.70;16.40;;;11.50;99.90;;;;;;5005684;28;20551;-84
2022/06/02 05:49:09;;;;;;;20.73;16.80;;;11.60;99.90;;;;;;5009506;28;20463;-84
2022/06/02 05:51:46;;;;;;;23.40;19.40;;;11.70;99.90;;;;;;5002400;28;20443;-81
2022/06/02 05:54:27;;;;;;;21.77;18.20;;;11.70;99.90;;;;;;5005578;28;20454;-79
2022/06/02 05:57:11;;;;;;;22.70;18.33;;;11.90;99.90;;;;;;5009439;28;20499;-82
2022/06/02 06:00:08;;;;;;;21.77;19.47;;;11.90;99.90;;;;;;4990574;28;20482;-82
2022/06/02 06:02:52;;;;;;;21.40;19.10;;;11.90;99.90;;;;;;4988024;28;20574;-81
2022/06/02 06:05:26;;;;;;;18.70;15.93;;;11.80;99.90;;;;;;4992710;28;20454;-81
2022/06/02 06:08:25;;;;;;;17.13;15.10;;;11.90;99.90;;;;;;4991274;28;20859;-80
2022/06/02 06:11:06;;;;;;;22.40;17.00;;;12.00;99.90;;;;;;4986246;28;20485;-81
2022/06/02 06:13:52;;;;;;;22.63;17.30;;;12.10;99.90;;;;;;4998726;28;20458;-80
2022/06/02 06:16:25;;;;;;;18.17;15.57;;;12.30;99.90;;;;;;4997325;28;20481;-81
2022/06/02 06:19:05;;;;;;;17.10;14.73;;;12.40;99.90;;;;;;4998007;28;20461;-81
2022/06/02 06:21:49;;;;;;;18.23;14.10;;;12.50;99.90;;;;;;5003262;28;20567;-81
2022/06/02 06:24:44;;;;;;;14.27;11.83;;;12.50;99.90;;;;;;5008787;28;20473;-81
2022/06/02 06:27:19;;;;;;;16.23;13.97;;;12.60;99.90;;;;;;4995738;28;20497;-82
2022/06/02 06:29:59;;;;;;;16.87;14.57;;;12.70;99.90;;;;;;4997223;28;20478;-81
2022/06/02 06:32:37;;;;;;;16.63;14.07;;;12.80;99.90;;;;;;4993079;28;20458;-82
2022/06/02 06:35:15;;;;;;;14.70;13.07;;;12.90;99.90;;;;;;5000130;28;20458;-81
2022/06/02 06:37:59;;;;;;;17.13;12.00;;;12.90;99.90;;;;;;4998981;28;20532;-83
2022/06/02 06:40:49;;;;;;;13.77;11.10;;;13.10;99.90;;;;;;4995284;28;20859;-80
2022/06/02 06:43:29;;;;;;;12.00;9.53;;;13.10;99.90;;;;;;4995970;28;20593;-83
2022/06/02 06:46:01;;;;;;;10.77;9.67;;;13.20;99.90;;;;;;4997857;28;20455;-82
2022/06/02 06:48:35;;;;;;;9.93;8.10;;;13.30;99.90;;;;;;4997771;28;20464;-80
2022/06/02 06:51:12;;;;;;;8.93;8.03;;;13.30;99.90;;;;;;4998943;28;20484;-80
2022/06/02 06:53:53;;;;;;;12.40;11.10;;;13.40;99.90;;;;;;4995916;28;20459;-81
2022/06/02 06:56:27;;;;;;;13.77;10.13;;;13.30;99.90;;;;;;5005179;28;20458;-82
2022/06/02 06:59:09;;;;;;;10.00;9.00;;;13.30;99.90;;;;;;5005072;28;21088;-79
2022/06/02 07:01:43;;;;;;;10.60;8.40;;;13.20;99.90;;;;;;5002649;28;20527;-82
2022/06/02 07:04:28;;;;;;;8.67;7.77;;;13.20;99.90;;;;;;5000122;28;20467;-79
2022/06/02 07:06:58;;;;;;;9.90;8.90;;;13.20;99.90;;;;;;4995973;28;20551;-80
2022/06/02 07:09:31;;;;;;;8.73;7.87;;;13.20;99.90;;;;;;5004582;28;20948;-80
2022/06/02 07:14:54;;;;;;;9.50;8.23;;;13.30;99.90;;;;;;5002094;28;20512;-80
2022/06/02 07:17:30;;;;;;;9.50;7.73;;;13.40;99.90;;;;;;5002275;28;20477;-80
2022/06/02 07:20:08;;;;;;;10.70;8.80;;;13.50;99.90;;;;;;4993242;28;20503;-82
2022/06/02 07:22:43;;;;;;;10.87;9.07;;;13.70;99.90;;;;;;4998590;28;20487;-79
2022/06/02 07:25:17;;;;;;;9.50;7.83;;;13.90;99.90;;;;;;5016551;28;20961;-81
2022/06/02 07:27:50;;;;;;;10.53;8.07;;;14.10;99.90;;;;;;5018192;28;20851;-81
2022/06/02 07:30:29;;;;;;;10.40;8.63;;;14.30;99.90;;;;;;5016126;28;20523;-80
2022/06/02 07:33:21;;;;;;;9.67;8.43;;;14.30;99.90;;;;;;5017734;28;20460;-80
2022/06/02 07:36:06;;;;;;;10.40;9.30;;;14.40;99.90;;;;;;5015315;28;20481;-80
2022/06/02 07:38:53;;;;;;;9.20;6.97;;;14.70;99.90;;;;;;4996659;28;20440;-79
2022/06/02 07:41:44;;;;;;;10.37;8.50;;;14.90;99.90;;;;;;4995736;28;20454;-82
2022/06/02 07:44:51;;;;;;;6.63;5.93;;;15.20;99.90;;;;;;4996438;28;20460;-78
2022/06/02 07:47:54;;;;;;;7.67;6.87;;;15.60;99.90;;;;;;4975845;28;20459;-81
2022/06/02 07:50:25;;;;;;;8.43;6.67;;;15.80;99.90;;;;;;4993611;28;20464;-79
2022/06/02 07:53:03;;;;;;;7.90;6.73;;;16.20;99.90;;;;;;4976800;28;20461;-82
2022/06/02 07:55:37;;;;;;;7.80;6.33;;;16.60;99.90;;;;;;4992686;28;20467;-81
2022/06/02 07:58:21;;;;;;;7.20;6.00;;;16.80;99.90;;;;;;4997941;28;20441;-81
2022/06/02 08:00:55;;;;;;;7.20;6.30;;;17.20;99.90;;;;;;4997420;28;20474;-80
2022/06/02 08:03:58;;;;;;;7.60;6.37;;;17.00;99.90;;;;;;4996847;28;20950;-79
2022/06/02 08:06:35;;;;;;;6.70;4.50;;;16.60;99.90;;;;;;4975403;28;20473;-80
2022/06/02 08:09:38;;;;;;;6.43;5.03;;;16.50;99.90;;;;;;4977051;28;20484;-80
2022/06/02 08:12:13;;;;;;;6.60;4.90;;;16.60;99.90;;;;;;4976535;28;20505;-80
2022/06/02 08:14:49;;;;;;;6.57;5.50;;;16.90;99.90;;;;;;4978060;28;20460;-79
2022/06/02 08:17:23;;;;;;;6.50;4.93;;;17.00;99.90;;;;;;4986006;28;20450;-80
2022/06/02 08:20:11;;;;;;;5.83;4.20;;;17.10;99.90;;;;;;4995805;28;20474;-79
2022/06/02 08:22:46;;;;;;;4.00;3.60;;;17.20;99.90;;;;;;4997124;28;20506;-82
2022/06/02 08:25:16;;;;;;;4.40;3.63;;;17.40;99.90;;;;;;4997207;28;20548;-81
2022/06/02 08:28:08;;;;;;;3.57;2.50;;;17.70;99.90;;;;;;4994473;28;20534;-79
2022/06/02 08:30:43;;;;;;;5.33;4.03;;;18.10;99.90;;;;;;4992802;28;20471;-78
2022/06/02 08:33:28;;;;;;;5.70;5.10;;;18.30;99.90;;;;;;4994524;28;20432;-79
2022/06/02 08:36:03;;;;;;;6.90;5.00;;;18.50;99.90;;;;;;4996213;28;20450;-80
2022/06/02 08:38:41;;;;;;;9.80;4.60;;;18.60;99.90;;;;;;4995098;28;20454;-81
2022/06/02 08:41:37;;;;;;;4.77;4.20;;;18.90;99.90;;;;;;4994687;28;20443;-80
2022/06/02 08:44:46;;;;;;;5.03;3.33;;;19.20;99.90;;;;;;4995740;28;20442;-82
2022/06/02 08:47:54;;;;;;;5.67;4.07;;;19.60;99.90;;;;;;4982032;28;20460;-82
2022/06/02 08:50:47;;;;;;;4.73;3.37;;;19.90;99.90;;;;;;4986886;28;20488;-81
2022/06/02 08:53:46;;;;;;;4.50;3.20;;;20.30;99.90;;;;;;4979846;28;20450;-81
2022/06/02 08:56:33;;;;;;;4.70;3.20;;;20.70;99.90;;;;;;4980965;28;20462;-81
2022/06/02 08:59:34;;;;;;;5.47;3.80;;;21.20;99.90;;;;;;4983446;28;20484;-81
2022/06/02 09:02:42;;;;;;;3.93;3.20;;;21.40;99.90;;;;;;4992613;28;20486;-84
2022/06/02 09:05:45;;;;;;;5.10;3.60;;;21.80;99.90;;;;;;4993155;28;20464;-81
2022/06/02 09:08:29;;;;;;;4.83;4.33;;;21.70;99.90;;;;;;4970251;28;20465;-81
2022/06/02 09:11:20;;;;;;;4.00;3.00;;;21.60;99.90;;;;;;4984366;28;20475;-81
2022/06/02 09:14:29;;;;;;;3.90;2.80;;;21.70;99.90;;;;;;4983124;28;20542;-81
2022/06/02 09:16:59;;;;;;;4.20;3.10;;;21.70;99.90;;;;;;5001873;28;20450;-82
2022/06/02 09:19:39;;;;;;;4.70;3.60;;;21.70;99.90;;;;;;4988992;28;20470;-84
2022/06/02 09:22:33;;;;;;;4.80;3.47;;;21.80;99.90;;;;;;4999235;28;20528;-82
2022/06/02 09:25:08;;;;;;;4.27;3.20;;;21.40;99.90;;;;;;4998858;28;20458;-81
2022/06/02 09:28:06;;;;;;;4.20;3.37;;;21.60;99.90;;;;;;4999012;28;20446;-84
2022/06/02 09:30:49;;;;;;;3.90;3.17;;;21.50;99.90;;;;;;4998846;28;20470;-82
2022/06/02 09:33:45;;;;;;;4.07;3.13;;;21.80;99.90;;;;;;5004768;28;20482;-84
2022/06/02 09:36:42;;;;;;;4.67;3.33;;;21.60;99.90;;;;;;5000101;28;20485;-84
2022/06/02 09:39:30;;;;;;;3.77;3.10;;;21.70;99.90;;;;;;5000539;28;20488;-82
2022/06/02 09:42:19;;;;;;;3.50;2.73;;;22.00;99.90;;;;;;5002145;28;20450;-83
2022/06/02 09:44:58;;;;;;;3.87;2.80;;;22.00;99.90;;;;;;5003187;28;20458;-83
2022/06/02 09:48:03;;;;;;;4.73;3.10;;;22.20;99.90;;;;;;5001256;28;20446;-85
2022/06/02 09:51:16;;;;;;;5.67;3.20;;;22.30;99.90;;;;;;4994963;28;20482;-81
2022/06/02 09:54:12;;;;;;;4.23;2.53;;;22.60;99.90;;;;;;5075374;22;20489;-76
2022/06/02 10:00:11;;;;;;;3.10;2.33;;;22.40;99.90;;;;;;5022070;28;20438;-78
2022/06/02 10:02:55;;;;;;;4.13;2.57;;;22.60;99.90;;;;;;5021496;28;20492;-77
2022/06/02 10:05:48;;;;;;;4.10;2.53;;;22.70;99.90;;;;;;5001211;28;20434;-76
2022/06/02 10:08:39;;;;;;;6.07;2.90;;;22.90;99.90;;;;;;4998471;28;20462;-79
2022/06/02 10:11:24;;;;;;;2.77;1.80;;;23.10;99.90;;;;;;5000123;28;21011;-78
2022/06/02 10:14:38;;;;;;;2.90;2.00;;;23.50;99.90;;;;;;5000936;28;20545;-79
2022/06/02 10:17:59;;;;;;;3.70;2.30;;;24.20;99.90;;;;;;4912323;29;20493;-78
2022/06/02 10:21:06;;;;;;;3.87;2.10;;;24.10;99.90;;;;;;4929938;29;20870;-75
2022/06/02 10:24:07;;;;;;;2.80;2.13;;;24.40;99.90;;;;;;4995233;28;20482;-78
2022/06/02 10:26:55;;;;;;;4.13;2.70;;;23.90;99.90;;;;;;5001271;28;20445;-78
2022/06/02 10:29:56;;;;;;;3.40;2.60;;;22.90;98.80;;;;;;5002424;28;20450;-78
2022/06/02 10:33:05;;;;;;;3.63;2.40;;;23.40;99.90;;;;;;5002137;28;20447;-78
2022/06/02 10:35:59;;;;;;;5.03;3.60;;;23.90;99.90;;;;;;4948406;28;20468;-75
2022/06/02 10:38:28;;;;;;;4.80;2.83;;;23.20;98.00;;;;;;4983766;28;20447;-79
2022/06/02 10:41:11;;;;;;;5.23;3.40;;;22.70;99.90;;;;;;4993842;28;20459;-78
2022/06/02 10:44:12;;;;;;;3.80;3.30;;;22.00;99.90;;;;;;5002107;28;20513;-80
2022/06/02 10:47:29;;;;;;;22.57;9.60;;;22.00;99.90;;;;;;4996168;28;20450;-79
2022/06/02 10:50:08;;;;;;;17.53;16.13;;;22.20;99.90;;;;;;4927091;29;20457;-79
2022/06/02 10:53:20;;;;;;;11.73;5.87;;;22.30;99.90;;;;;;4940199;29;20453;-78
2022/06/02 10:56:20;;;;;;;3.00;2.20;;;22.00;99.90;;;;;;4915911;29;20489;-79
2022/06/02 10:59:44;;;;;;;3.50;2.47;;;21.70;99.90;;;;;;4999630;28;20564;-80
2022/06/02 11:02:55;;;;;;;4.60;2.63;;;21.50;99.90;;;;;;4990512;28;20488;-79
2022/06/02 11:05:57;;;;;;;3.43;2.30;;;21.30;99.90;;;;;;4997624;28;20527;-80
2022/06/02 11:09:02;;;;;;;4.23;3.20;;;21.30;99.90;;;;;;5000402;28;20957;-79
2022/06/02 11:11:50;;;;;;;8.67;5.80;;;21.40;99.90;;;;;;4999917;28;20505;-81
2022/06/02 11:14:48;;;;;;;12.83;11.47;;;21.60;99.90;;;;;;5000625;28;20506;-80
2022/06/02 11:17:54;;;;;;;5.87;3.97;;;22.50;99.90;;;;;;4996788;28;20447;-78
2022/06/02 11:20:40;;;;;;;5.37;4.03;;;23.60;99.90;;;;;;4969771;28;20514;-78
2022/06/02 11:23:48;;;;;;;9.03;5.23;;;24.60;99.90;;;;;;5006945;28;20491;-78
2022/06/02 11:26:49;;;;;;;4.60;3.50;;;24.80;99.90;;;;;;5012646;28;20427;-79
2022/06/02 11:29:48;;;;;;;4.83;2.10;;;25.50;99.90;;;;;;5006873;28;20435;-80
2022/06/02 11:32:33;;;;;;;89.50;78.77;;;25.90;99.90;;;;;;5003562;28;20490;-79
2022/06/02 11:35:39;;;;;;;65.53;58.43;;;26.20;99.90;;;;;;5008817;28;20497;-79
2022/06/02 11:38:44;;;;;;;12.37;11.20;;;25.90;99.90;;;;;;4988418;28;20454;-79
2022/06/02 11:41:30;;;;;;;3.70;2.77;;;26.10;99.90;;;;;;5009718;28;20454;-79
2022/06/02 11:44:06;;;;;;;5.07;2.57;;;26.00;99.90;;;;;;5012540;28;20494;-79
2022/06/02 11:47:03;;;;;;;3.33;2.07;;;26.60;99.90;;;;;;5029142;28;20449;-78
2022/06/02 11:49:55;;;;;;;2.80;2.13;;;26.80;97.90;;;;;;5020650;28;20465;-79
2022/06/02 11:52:55;;;;;;;3.73;2.87;;;27.10;99.90;;;;;;5017404;28;20444;-79
2022/06/02 11:55:28;;;;;;;2.70;1.67;;;26.80;92.80;;;;;;5007077;28;20518;-78
2022/06/02 11:58:43;;;;;;;3.03;1.93;;;27.30;97.80;;;;;;4990670;28;20454;-78
2022/06/02 12:01:34;;;;;;;3.57;2.20;;;27.80;93.20;;;;;;4967373;28;20471;-80
2022/06/02 12:04:36;;;;;;;2.63;1.70;;;28.40;89.20;;;;;;4999003;28;20470;-79
2022/06/02 12:07:35;;;;;;;2.50;1.77;;;28.80;91.90;;;;;;5010331;28;20466;-78
2022/06/02 12:10:29;;;;;;;3.33;1.90;;;29.50;90.40;;;;;;4998488;28;20443;-80
2022/06/02 12:13:26;;;;;;;2.93;1.60;;;29.10;90.30;;;;;;5014155;28;20447;-80
2022/06/02 12:16:18;;;;;;;2.50;1.40;;;29.90;78.90;;;;;;5012033;28;20447;-80
2022/06/02 12:19:04;;;;;;;2.17;1.50;;;30.60;76.20;;;;;;5013521;28;20527;-80
2022/06/02 12:21:48;;;;;;;2.70;1.70;;;30.10;74.60;;;;;;5000645;28;20509;-78
2022/06/02 12:24:31;;;;;;;3.60;1.30;;;30.30;75.90;;;;;;4996545;28;20556;-79
2022/06/02 12:27:27;;;;;;;3.87;1.60;;;30.60;69.80;;;;;;4992157;28;20912;-81
2022/06/02 12:30:20;;;;;;;2.67;1.73;;;30.90;76.10;;;;;;4991474;28;20450;-80
2022/06/02 12:33:14;;;;;;;3.17;2.00;;;30.60;63.00;;;;;;4991149;28;20544;-80
2022/06/02 12:36:09;;;;;;;3.43;1.73;;;30.40;67.40;;;;;;4991198;28;20850;-79
2022/06/02 12:39:00;;;;;;;4.00;1.53;;;30.50;66.30;;;;;;4975236;28;20447;-78
2022/06/02 12:41:42;;;;;;;2.40;1.50;;;31.10;67.60;;;;;;4986220;28;20832;-77
2022/06/02 12:44:40;;;;;;;3.27;1.20;;;31.80;65.70;;;;;;4993568;28;20576;-79
2022/06/02 12:55:18;;;;;;;2.40;1.40;;;31.60;57.60;;;;;;4887872;29;20498;-78
2022/06/02 12:58:26;;;;;;;3.23;1.70;;;30.90;56.30;;;;;;4986191;28;20470;-80
2022/06/02 13:01:08;;;;;;;2.57;1.63;;;31.80;60.20;;;;;;4996983;28;20466;-78
2022/06/02 13:04:18;;;;;;;2.67;1.80;;;32.00;56.80;;;;;;4995887;28;20499;-78
2022/06/02 13:07:15;;;;;;;2.90;1.67;;;32.50;57.90;;;;;;4924991;28;20447;-79
2022/06/02 13:10:21;;;;;;;2.50;1.43;;;33.30;58.50;;;;;;4994927;28;20441;-79
2022/06/02 13:13:12;;;;;;;2.30;1.17;;;34.50;54.60;;;;;;5000515;28;20477;-80
2022/06/02 13:15:58;;;;;;;2.60;1.60;;;33.40;54.10;;;;;;4999853;28;20450;-78
2022/06/02 13:19:01;;;;;;;2.87;1.30;;;34.50;53.40;;;;;;4999890;28;20526;-79
2022/06/02 13:22:05;;;;;;;2.70;1.50;;;35.10;53.80;;;;;;4984471;28;20831;-78
2022/06/02 13:24:56;;;;;;;2.40;1.17;;;35.50;53.50;;;;;;5000542;28;20501;-79
2022/06/02 13:27:58;;;;;;;2.60;1.40;;;36.10;53.50;;;;;;5005278;28;20460;-78
2022/06/02 13:30:42;;;;;;;2.23;1.20;;;35.50;52.60;;;;;;5002395;28;20481;-80
2022/06/02 13:33:51;;;;;;;2.00;1.20;;;36.70;51.10;;;;;;4999630;28;20482;-79
2022/06/02 13:36:38;;;;;;;2.40;1.27;;;36.40;46.60;;;;;;4993627;28;20507;-80
2022/06/02 13:39:49;;;;;;;2.20;1.30;;;36.90;99.90;;;;;;4997260;28;20462;-80
2022/06/02 13:42:52;;;;;;;3.53;1.40;;;36.30;99.90;;;;;;4995341;28;20458;-77
2022/06/02 13:45:58;;;;;;;3.60;1.50;;;37.60;99.90;;;;;;4994345;28;20482;-79
2022/06/02 13:49:10;;;;;;;2.20;1.30;;;38.40;99.90;;;;;;4994646;28;20456;-78
2022/06/02 13:52:06;;;;;;;2.40;1.20;;;39.20;99.90;;;;;;4997518;28;20467;-78
2022/06/02 13:58:24;;;;;;;2.47;1.30;;;39.10;99.90;;;;;;4997599;28;20807;-77
2022/06/02 14:01:16;;;;;;;2.10;1.00;;;39.90;99.90;;;;;;4997368;28;20522;-77
2022/06/02 14:04:21;;;;;;;2.10;1.40;;;40.20;99.90;;;;;;4997163;28;20474;-77
2022/06/02 14:06:53;;;;;;;2.90;1.30;;;39.10;99.90;;;;;;4996588;28;20911;-77
2022/06/02 14:09:41;;;;;;;2.47;1.40;;;39.50;99.90;;;;;;4996087;28;20454;-77
2022/06/02 14:12:33;;;;;;;2.40;1.33;;;38.40;99.90;;;;;;4996404;28;20454;-77
2022/06/02 14:15:20;;;;;;;2.30;1.30;;;39.70;99.90;;;;;;4981785;28;20568;-77
2022/06/02 14:18:22;;;;;;;3.20;1.20;;;40.10;99.90;;;;;;4996586;28;20461;-78
2022/06/02 14:20:59;;;;;;;2.30;1.20;;;39.60;99.90;;;;;;5002950;28;20453;-78
2022/06/02 14:23:40;;;;;;;3.50;1.47;;;39.10;99.90;;;;;;5003793;28;20550;-77
2022/06/02 14:26:20;;;;;;;2.20;1.20;;;39.70;99.90;;;;;;4997279;28;20455;-77
2022/06/02 14:29:02;;;;;;;2.60;1.93;;;39.90;99.90;;;;;;5003416;28;20457;-79
2022/06/02 14:31:39;;;;;;;2.63;1.70;;;39.10;99.90;;;;;;5002478;28;20493;-76
2022/06/02 14:34:18;;;;;;;3.23;2.30;;;38.90;99.90;;;;;;5002871;28;20482;-76
2022/06/02 14:36:52;;;;;;;3.50;2.13;;;40.10;99.90;;;;;;5004871;28;20454;-78
2022/06/02 14:39:31;;;;;;;2.30;1.63;;;40.60;99.90;;;;;;5005277;28;21115;-77
2022/06/02 14:45:28;;;;;;;3.40;2.67;;;41.30;99.90;;;;;;4946006;28;20540;-76
2022/06/02 14:48:06;;;;;;;4.20;2.70;;;40.80;99.90;;;;;;5009467;28;20438;-77